Roslindale, MA (02131)

11:48 PM EST on November 22, 2014 (GMT -0500)
KMAJAMAI4 | Change Station
CLOSE
Current Station
Personal Weather Station
Location: (Arnold Arboretum ) Roslindale, MA
Elevation: 148 ft
Nearby Weather Stations

Elev 148 ft 42.30 °N, 71.13 °W | Updated 21 minutes ago

Mostly Cloudy
Mostly Cloudy
40.8 °F
Feels Like 37 °F
N
5.8
Wind Variable Wind from SW
Gusts 12.5 mph

Today
High -- | Low -- °F
--% Chance of Precip.
Yesterday
High -- | Low -- °F
Precip. -- in
6:43 AM 4:17 PM
New Moon, 1% visible
Pressure 30.09 in
Visibility 10.0 miles
Clouds Clear
Windchill 37 °F
Dew Point 23 °F
Humidity 49%
Rainfall -999.00 in
Snow Depth Not available.
UV 0 out of 12
Pollen .10 out of 12
Air Quality Not available.
Flu Activity Not available.
METAR KOWD 230353Z AUTO 23007KT 10SM CLR 06/M06 A3009 RMK AO2 SLP190 T00561061

More Conditions Fewer Conditions

Pressure 30.09 in
Visibility 10.0 miles
Clouds Clear
Windchill 37 °F
Dew Point 23 °F
Humidity 49%
Rainfall -999.00 in
Snow Depth Not available.
UV 0 out of 12
Pollen .10 out of 12
Air Quality Not available.
Flu Activity Not available.
METAR KOWD 230353Z AUTO 23007KT 10SM CLR 06/M06 A3009 RMK AO2 SLP190 T00561061

More Conditions Fewer Conditions

10-Day Weather Forecast

Almanac

Astronomy

Nov. 22, 2014 Rise Set
Actual Time
Civil Twilight
Nautical Twilight
Astronomical Twilight
Moon
Length of Visible Light
Length of Day
Tomorrow will be .
, % of the Moon is Illuminated

Today's Extremes

State Highs State Lows

Community

WunderPhotos

Upload Photos

1,773,003 photos uploaded!

WunderBlogs® & News

Nearby

Air Quality

  Air Quality AQ Index Pollutant
Not available.

Snow Depth

Station Depth Elevation

Earthquake Activity

City Distance Mag. Time & Date
Minimum magnitude displayed is 2.5.

Coastal Water Temperatures

Place Temperature

Nearby Weather Stations